Time;durP1;ratioP1;P1;durP2;ratioP2;P2;SDS_P1;SDS_P2;PMS_P1;PMS_P2;Temp;Humidity;BMP_temperature;BMP_pressure;BME280_temperature;BME280_humidity;BME280_pressure;Samples;Min_cycle;Max_cycle;Signal;HPM_P1;HPM_P2
2023/01/31 00:01:29;;;;;;;0.40;0.40;;;;;;;10.43;59.80;102396.88;4992646;28;20047;-72
2023/01/31 00:03:57;;;;;;;0.35;0.35;;;;;;;10.34;59.11;102378.31;4996513;28;20034;-72
2023/01/31 00:06:31;;;;;;;0.30;0.30;;;;;;;10.29;59.56;102378.88;4996785;28;20074;-71
2023/01/31 00:08:58;;;;;;;0.32;0.32;;;;;;;10.30;59.98;102371.69;4995333;28;20070;-72
2023/01/31 00:11:26;;;;;;;0.43;0.43;;;;;;;10.43;59.11;102374.53;4996452;28;20073;-71
2023/01/31 00:13:52;;;;;;;0.30;0.30;;;;;;;10.34;59.49;102379.16;4996300;28;20418;-72
2023/01/31 00:16:18;;;;;;;0.30;0.30;;;;;;;9.52;61.59;102382.81;4996231;28;20130;-71
2023/01/31 00:18:44;;;;;;;0.47;0.47;;;;;;;9.87;60.49;102377.81;4996372;28;20030;-72
2023/01/31 00:21:16;;;;;;;0.43;0.43;;;;;;;9.97;60.59;102379.22;4995789;28;20499;-72
2023/01/31 00:23:42;;;;;;;0.30;0.30;;;;;;;9.74;60.74;102373.06;4996467;28;20045;-70
2023/01/31 00:26:08;;;;;;;0.45;0.45;;;;;;;9.58;62.71;102376.72;4999694;28;20053;-71
2023/01/31 00:28:33;;;;;;;0.47;0.47;;;;;;;9.70;61.86;102369.91;4978852;28;20046;-74
2023/01/31 00:30:58;;;;;;;0.57;0.57;;;;;;;9.88;60.79;102368.72;4977424;28;20109;-72
2023/01/31 00:33:24;;;;;;;0.30;0.30;;;;;;;10.25;59.76;102363.31;4976662;28;20093;-72
2023/01/31 00:35:49;;;;;;;0.52;0.52;;;;;;;10.66;57.58;102352.88;4976730;28;20043;-72
2023/01/31 00:38:14;;;;;;;0.40;0.40;;;;;;;9.85;60.25;102359.19;4976874;28;20069;-72
2023/01/31 00:40:40;;;;;;;0.30;0.30;;;;;;;10.39;59.53;102362.47;4976703;28;20388;-71
2023/01/31 00:43:05;;;;;;;0.28;0.28;;;;;;;10.13;59.48;102357.59;4976315;28;20050;-71
2023/01/31 00:45:30;;;;;;;0.43;0.43;;;;;;;9.62;60.99;102351.19;4976846;28;20027;-71
2023/01/31 00:47:56;;;;;;;0.45;0.45;;;;;;;9.73;61.09;102347.22;4983544;28;20037;-72
2023/01/31 00:50:22;;;;;;;0.32;0.32;;;;;;;9.69;61.14;102346.75;4995868;28;20116;-72
2023/01/31 00:52:47;;;;;;;0.40;0.40;;;;;;;9.73;61.07;102333.81;4996005;28;20518;-72
2023/01/31 00:55:13;;;;;;;0.50;0.50;;;;;;;9.53;62.11;102341.53;4996335;28;20042;-73
2023/01/31 00:57:38;;;;;;;0.30;0.30;;;;;;;9.98;60.53;102345.13;4995888;28;20443;-71
2023/01/31 01:00:04;;;;;;;0.40;0.40;;;;;;;10.20;60.02;102342.38;4995529;28;20038;-71
2023/01/31 01:02:29;;;;;;;0.47;0.47;;;;;;;9.58;61.38;102343.69;4995599;28;20038;-71
2023/01/31 01:04:54;;;;;;;0.30;0.30;;;;;;;9.69;60.86;102336.03;4995942;28;20544;-72
2023/01/31 01:07:20;;;;;;;0.47;0.47;;;;;;;9.80;60.59;102339.28;4995804;28;20473;-71
2023/01/31 01:09:45;;;;;;;0.30;0.30;;;;;;;9.96;60.50;102349.84;4996508;28;20100;-72
2023/01/31 01:12:10;;;;;;;0.40;0.35;;;;;;;10.05;60.11;102340.69;4995855;28;20060;-72
2023/01/31 01:14:36;;;;;;;0.40;0.40;;;;;;;9.77;61.17;102339.66;4995420;28;20034;-72
2023/01/31 01:17:01;;;;;;;0.30;0.30;;;;;;;9.51;61.86;102335.53;4995910;28;20080;-71
2023/01/31 01:19:27;;;;;;;0.38;0.38;;;;;;;9.97;60.15;102344.28;4995836;28;20415;-71
2023/01/31 01:21:54;;;;;;;0.40;0.40;;;;;;;9.66;61.10;102343.63;4996011;28;20041;-72
2023/01/31 01:24:20;;;;;;;0.35;0.35;;;;;;;10.37;59.26;102337.66;4995922;28;20034;-72
2023/01/31 01:26:46;;;;;;;0.55;0.55;;;;;;;10.06;59.43;102332.47;4995620;28;20050;-73
2023/01/31 01:29:11;;;;;;;0.60;0.60;;;;;;;9.18;62.58;102339.50;4995271;28;20042;-71
2023/01/31 01:31:38;;;;;;;0.50;0.50;;;;;;;9.51;61.95;102335.53;4994985;28;20042;-73
2023/01/31 01:34:07;;;;;;;0.40;0.40;;;;;;;10.15;59.70;102335.91;4994070;28;20692;-72
2023/01/31 01:36:35;;;;;;;0.43;0.43;;;;;;;10.52;58.31;102351.91;4995296;28;20050;-71
2023/01/31 01:39:00;;;;;;;0.40;0.40;;;;;;;9.57;60.78;102356.25;4994385;28;20391;-71
2023/01/31 01:41:26;;;;;;;0.30;0.30;;;;;;;9.74;60.48;102360.50;4994879;28;20039;-72
2023/01/31 01:43:57;;;;;;;0.40;0.40;;;;;;;10.42;58.38;102359.41;4994764;28;20042;-72
2023/01/31 01:46:35;;;;;;;0.40;0.40;;;;;;;9.95;60.09;102356.22;4994781;28;20038;-72
2023/01/31 01:49:33;;;;;;;0.40;0.40;;;;;;;10.51;59.04;102353.75;4994905;28;20091;-72
2023/01/31 01:52:02;;;;;;;0.40;0.40;;;;;;;10.12;59.17;102355.09;4995012;28;20039;-72
2023/01/31 01:54:35;;;;;;;0.43;0.43;;;;;;;9.37;61.97;102349.75;4994455;28;20129;-72
2023/01/31 01:57:03;;;;;;;0.43;0.43;;;;;;;9.65;60.50;102353.50;4994492;28;20126;-72
2023/01/31 01:59:44;;;;;;;0.30;0.30;;;;;;;10.02;60.41;102347.28;4994545;28;20049;-72
2023/01/31 02:02:11;;;;;;;0.40;0.40;;;;;;;10.06;59.47;102345.06;4994928;28;20042;-73
2023/01/31 02:04:39;;;;;;;0.30;0.30;;;;;;;9.94;60.00;102346.53;4994284;28;20042;-73
2023/01/31 02:07:07;;;;;;;0.40;0.40;;;;;;;9.71;61.09;102339.34;4993547;28;20502;-72
2023/01/31 02:09:58;;;;;;;0.40;0.40;;;;;;;9.30;63.64;102346.09;4995245;28;20030;-73
2023/01/31 02:12:24;;;;;;;0.60;0.60;;;;;;;9.33;62.63;102343.09;4994136;28;20293;-72
2023/01/31 02:14:50;;;;;;;0.30;0.30;;;;;;;9.32;63.25;102338.72;4994550;28;20396;-74
2023/01/31 02:17:17;;;;;;;0.40;0.40;;;;;;;9.47;62.94;102331.53;4994428;28;20041;-72
2023/01/31 02:19:55;;;;;;;0.35;0.30;;;;;;;9.63;62.78;102327.88;4994048;28;20037;-72
2023/01/31 02:22:39;;;;;;;0.32;0.32;;;;;;;9.84;63.14;102327.16;4994238;28;20041;-71
2023/01/31 02:25:23;;;;;;;0.40;0.40;;;;;;;10.23;60.88;102323.22;4994122;28;20130;-72
2023/01/31 02:27:57;;;;;;;0.55;0.55;;;;;;;10.19;61.10;102321.91;4994363;28;20046;-72
2023/01/31 02:30:44;;;;;;;0.50;0.50;;;;;;;9.40;63.75;102319.88;4994370;28;20053;-73
2023/01/31 02:33:31;;;;;;;0.30;0.30;;;;;;;9.44;64.73;102313.13;4993955;28;20046;-71
2023/01/31 02:36:15;;;;;;;0.30;0.30;;;;;;;9.41;64.77;102304.63;4974802;28;20076;-72
2023/01/31 02:38:55;;;;;;;0.40;0.40;;;;;;;9.77;64.47;102302.88;4974918;28;20039;-72
2023/01/31 02:41:58;;;;;;;0.47;0.47;;;;;;;9.67;64.62;102300.47;4975019;28;20043;-73
2023/01/31 02:47:47;;;;;;;0.43;0.43;;;;;;;9.82;64.69;102281.72;4974446;28;20181;-72
2023/01/31 02:50:25;;;;;;;0.40;0.40;;;;;;;9.12;66.23;102294.63;4968901;28;20043;-71
2023/01/31 02:53:13;;;;;;;0.30;0.30;;;;;;;9.71;65.21;102284.84;4971112;28;20066;-72
2023/01/31 02:56:17;;;;;;;0.30;0.30;;;;;;;8.88;67.43;102272.53;4970830;28;20057;-72
2023/01/31 02:59:06;;;;;;;0.40;0.40;;;;;;;9.32;65.85;102274.34;4970964;28;20039;-72
2023/01/31 03:01:41;;;;;;;0.30;0.30;;;;;;;9.18;66.67;102275.13;4970252;28;20663;-73
2023/01/31 03:04:09;;;;;;;0.40;0.40;;;;;;;9.48;65.35;102266.13;4969894;28;20482;-71
2023/01/31 03:06:34;;;;;;;0.30;0.30;;;;;;;9.29;65.36;102263.97;4970951;28;20045;-72
2023/01/31 03:09:27;;;;;;;0.45;0.45;;;;;;;9.50;65.56;102271.31;4971100;28;20039;-72
2023/01/31 03:12:01;;;;;;;0.20;0.20;;;;;;;9.65;65.53;102273.00;4970541;28;20046;-71
2023/01/31 03:14:40;;;;;;;0.20;0.20;;;;;;;10.07;64.60;102274.19;4970953;28;20049;-73
2023/01/31 03:20:20;;;;;;;0.28;0.28;;;;;;;9.46;68.26;102272.69;4952322;28;20065;-72
2023/01/31 03:22:55;;;;;;;0.45;0.45;;;;;;;9.66;66.26;102272.00;4952422;29;20039;-72
2023/01/31 03:25:24;;;;;;;0.30;0.30;;;;;;;10.28;64.65;102274.31;4952365;29;20084;-71
2023/01/31 03:27:56;;;;;;;0.30;0.30;;;;;;;9.82;66.17;102270.97;4952348;29;20059;-73
2023/01/31 03:30:27;;;;;;;0.30;0.30;;;;;;;10.04;65.92;102283.47;4952087;28;20036;-72
2023/01/31 03:33:02;;;;;;;0.30;0.30;;;;;;;9.90;67.50;102278.94;4952415;28;20602;-70
2023/01/31 03:35:30;;;;;;;0.50;0.50;;;;;;;9.71;67.36;102283.00;4951996;28;20569;-73
2023/01/31 03:38:05;;;;;;;0.25;0.25;;;;;;;10.09;66.42;102270.31;4951538;28;20090;-73
2023/01/31 03:40:36;;;;;;;0.40;0.40;;;;;;;9.61;67.57;102262.81;4951194;28;20047;-74
2023/01/31 03:43:17;;;;;;;;;;;;;;;10.43;65.68;102262.50;4952643;29;20151;-72
2023/01/31 03:45:51;;;;;;;;;;;;;;;10.55;64.88;102257.47;4952464;29;20374;-71
2023/01/31 03:48:21;;;;;;;0.47;0.47;;;;;;;9.96;66.77;102258.56;4951015;28;19918;-72
2023/01/31 03:50:52;;;;;;;0.30;0.30;;;;;;;10.11;66.16;102251.34;4951424;28;20087;-72
2023/01/31 03:53:26;;;;;;;0.35;0.35;;;;;;;10.35;66.00;102248.34;4954425;28;20047;-71
2023/01/31 03:55:58;;;;;;;0.40;0.40;;;;;;;10.13;66.18;102250.13;4973471;28;20026;-72
2023/01/31 03:58:30;;;;;;;0.40;0.40;;;;;;;10.07;66.97;102248.16;4973374;28;20046;-72
2023/01/31 04:00:57;;;;;;;;;;;;;;;10.26;67.23;102250.28;4974561;28;20101;-73
2023/01/31 04:03:22;;;;;;;0.50;0.50;;;;;;;10.12;66.98;102253.03;4980805;28;19922;-73
2023/01/31 04:05:48;;;;;;;0.25;0.25;;;;;;;10.36;65.70;102250.81;4993104;28;20041;-73
2023/01/31 04:08:13;;;;;;;0.57;0.50;;;;;;;10.25;66.33;102245.94;4992869;28;20042;-71
2023/01/31 04:10:40;;;;;;;0.40;0.40;;;;;;;10.38;66.70;102240.72;4993011;28;20038;-72
2023/01/31 04:13:05;;;;;;;0.47;0.47;;;;;;;10.48;66.77;102235.88;4983211;28;20139;-72
2023/01/31 04:15:30;;;;;;;0.40;0.40;;;;;;;10.86;64.81;102241.00;4973985;28;20030;-72
2023/01/31 04:17:56;;;;;;;0.47;0.47;;;;;;;10.78;65.86;102233.06;4973430;28;20059;-72
2023/01/31 04:20:21;;;;;;;0.50;0.50;;;;;;;10.49;67.30;102217.91;4973250;28;20154;-71
2023/01/31 04:22:47;;;;;;;0.45;0.45;;;;;;;10.39;66.89;102225.44;4982180;28;20122;-71
2023/01/31 04:25:12;;;;;;;0.30;0.30;;;;;;;10.31;67.89;102226.41;4992963;28;20108;-70
2023/01/31 04:27:38;;;;;;;0.38;0.38;;;;;;;10.11;67.97;102217.25;4993500;28;20026;-72
2023/01/31 04:30:04;;;;;;;0.30;0.30;;;;;;;10.36;68.06;102212.38;4993049;28;20582;-71
2023/01/31 04:32:30;;;;;;;0.47;0.47;;;;;;;10.10;69.40;102220.16;4992862;28;20062;-71
2023/01/31 04:34:55;;;;;;;0.40;0.40;;;;;;;10.00;69.69;102222.25;4992980;28;20120;-72
2023/01/31 04:37:21;;;;;;;0.50;0.50;;;;;;;10.56;68.37;102211.56;4992507;28;20026;-72
2023/01/31 04:39:46;;;;;;;0.50;0.50;;;;;;;9.99;69.43;102196.41;4992775;28;20415;-71
2023/01/31 04:42:11;;;;;;;0.40;0.40;;;;;;;10.58;67.38;102198.78;4992352;28;20076;-71
2023/01/31 04:44:37;;;;;;;0.50;0.50;;;;;;;10.80;67.73;102196.06;4992921;28;20050;-71
2023/01/31 04:47:02;;;;;;;0.40;0.40;;;;;;;11.01;67.71;102198.72;4992775;28;20068;-71
2023/01/31 04:49:27;;;;;;;0.30;0.30;;;;;;;10.78;67.47;102190.03;4994722;28;20041;-71
2023/01/31 04:51:53;;;;;;;0.40;0.40;;;;;;;10.38;68.76;102189.66;4996697;28;20034;-71
2023/01/31 04:54:18;;;;;;;0.45;0.45;;;;;;;10.46;69.51;102172.59;4994961;28;20062;-72
2023/01/31 04:56:44;;;;;;;0.45;0.45;;;;;;;10.63;68.43;102173.16;4994924;28;20085;-72
2023/01/31 04:59:09;;;;;;;0.30;0.30;;;;;;;10.88;67.65;102158.28;4994994;28;20130;-72
2023/01/31 05:01:34;;;;;;;0.40;0.40;;;;;;;10.35;69.71;102165.03;4994325;28;20536;-71
2023/01/31 05:04:01;;;;;;;0.45;0.45;;;;;;;10.53;68.93;102165.44;4986793;28;20026;-72
2023/01/31 05:06:26;;;;;;;0.40;0.40;;;;;;;10.81;68.56;102160.09;4990988;28;20129;-70
2023/01/31 05:08:53;;;;;;;0.50;0.50;;;;;;;10.64;69.42;102151.47;4991073;28;20558;-74
2023/01/31 05:11:19;;;;;;;0.50;0.50;;;;;;;10.69;69.06;102154.41;4995226;28;20433;-71
2023/01/31 05:13:46;;;;;;;0.47;0.47;;;;;;;10.89;67.93;102159.97;4995347;28;20045;-72
2023/01/31 05:16:12;;;;;;;0.35;0.35;;;;;;;10.68;69.13;102143.84;4994864;28;20042;-70
2023/01/31 05:18:38;;;;;;;0.63;0.63;;;;;;;10.88;69.14;102142.97;4995988;28;20030;-73
2023/01/31 05:21:05;;;;;;;0.30;0.30;;;;;;;10.81;69.39;102142.09;4995100;28;20046;-71
2023/01/31 05:23:31;;;;;;;0.50;0.50;;;;;;;10.78;69.22;102142.50;4983404;28;20131;-71
2023/01/31 05:25:57;;;;;;;0.40;0.40;;;;;;;10.44;70.30;102145.91;4976294;28;20403;-71
2023/01/31 05:28:24;;;;;;;0.65;0.65;;;;;;;10.72;69.90;102147.81;4976202;28;20038;-73
2023/01/31 05:30:50;;;;;;;0.40;0.40;;;;;;;10.41;70.86;102143.63;4976417;28;20054;-73
2023/01/31 05:33:19;;;;;;;0.40;0.40;;;;;;;10.67;70.62;102131.44;4975965;28;20042;-72
2023/01/31 05:35:45;;;;;;;0.40;0.40;;;;;;;10.91;69.44;102120.25;4975785;28;20051;-72
2023/01/31 05:38:10;;;;;;;0.65;0.65;;;;;;;10.59;70.18;102114.41;4999358;28;20042;-73
2023/01/31 05:40:36;;;;;;;0.40;0.40;;;;;;;10.63;69.03;102120.25;4995610;28;20117;-71
2023/01/31 05:43:01;;;;;;;0.40;0.40;;;;;;;10.42;71.08;102129.16;4996067;28;20038;-72
2023/01/31 05:45:27;;;;;;;0.30;0.30;;;;;;;10.72;70.07;102113.69;4995556;28;20045;-72
2023/01/31 05:47:53;;;;;;;0.50;0.50;;;;;;;10.36;70.83;102115.63;4995542;28;20041;-72
2023/01/31 05:50:19;;;;;;;0.30;0.30;;;;;;;10.06;72.49;102124.81;4994962;28;20030;-73
2023/01/31 05:53:11;;;;;;;0.38;0.38;;;;;;;10.34;71.19;102115.00;4995524;28;20053;-72
2023/01/31 05:55:37;;;;;;;0.60;0.60;;;;;;;10.46;71.39;102127.75;4993942;28;20034;-72
2023/01/31 05:58:02;;;;;;;0.30;0.30;;;;;;;10.72;69.58;102128.97;4995542;28;20394;-72
2023/01/31 06:00:28;;;;;;;0.40;0.40;;;;;;;10.08;72.70;102118.25;4993885;28;20038;-72
2023/01/31 06:02:56;;;;;;;0.32;0.32;;;;;;;10.52;71.39;102126.97;4995119;28;20042;-72
2023/01/31 06:05:21;;;;;;;0.43;0.43;;;;;;;10.32;70.69;102122.41;4997317;28;20080;-71
2023/01/31 06:07:47;;;;;;;0.40;0.40;;;;;;;10.64;69.91;102113.81;4992708;28;20038;-72
2023/01/31 06:10:13;;;;;;;0.47;0.47;;;;;;;11.16;69.07;102116.06;4988260;28;20058;-71
2023/01/31 06:12:38;;;;;;;0.38;0.38;;;;;;;10.28;72.18;102118.47;4994774;28;20466;-73
2023/01/31 06:15:04;;;;;;;0.47;0.47;;;;;;;10.35;71.70;102111.31;4994404;28;20442;-72
2023/01/31 06:17:30;;;;;;;0.40;0.40;;;;;;;10.35;71.46;102106.78;4994842;28;20495;-73
2023/01/31 06:19:55;;;;;;;0.40;0.40;;;;;;;11.25;67.93;102102.25;4993892;28;20041;-73
2023/01/31 06:22:21;;;;;;;0.32;0.32;;;;;;;11.01;69.00;102083.06;4993307;28;20553;-72
2023/01/31 06:24:46;;;;;;;0.47;0.47;;;;;;;10.88;68.88;102096.44;4994469;28;20014;-72
2023/01/31 06:27:11;;;;;;;0.40;0.40;;;;;;;10.66;69.48;102092.97;4994146;28;20042;-73
2023/01/31 06:29:37;;;;;;;0.40;0.40;;;;;;;10.53;70.31;102087.50;4994539;28;20033;-72
2023/01/31 06:32:03;;;;;;;0.40;0.40;;;;;;;10.38;70.75;102089.41;4993987;28;20126;-72
2023/01/31 06:34:28;;;;;;;0.25;0.25;;;;;;;10.26;71.00;102097.16;4994569;28;20557;-73
2023/01/31 06:36:53;;;;;;;0.43;0.43;;;;;;;10.89;68.56;102079.28;4990797;28;20070;-72
2023/01/31 06:39:19;;;;;;;0.22;0.22;;;;;;;10.31;71.77;102091.22;4987189;28;20050;-72
2023/01/31 06:41:45;;;;;;;0.30;0.30;;;;;;;10.44;71.67;102089.47;4987512;28;20034;-72
2023/01/31 06:44:10;;;;;;;0.40;0.40;;;;;;;10.34;71.45;102090.81;4987914;28;20070;-72
2023/01/31 06:46:35;;;;;;;0.30;0.30;;;;;;;10.37;72.19;102082.38;4985730;28;20042;-71
2023/01/31 06:49:02;;;;;;;0.30;0.30;;;;;;;10.26;72.18;102070.28;4992623;28;20034;-74
2023/01/31 06:51:27;;;;;;;0.30;0.30;;;;;;;10.58;71.24;102077.81;4990958;28;20126;-71
2023/01/31 06:53:55;;;;;;;0.40;0.40;;;;;;;10.30;71.36;102065.38;4991711;28;20050;-72
2023/01/31 06:56:20;;;;;;;0.40;0.40;;;;;;;10.39;71.06;102064.22;4993742;28;20030;-74
2023/01/31 06:58:46;;;;;;;0.50;0.50;;;;;;;10.46;70.62;102081.22;4994032;28;20034;-72
2023/01/31 07:01:13;;;;;;;0.40;0.30;;;;;;;10.15;72.00;102067.28;4993933;28;20038;-72
2023/01/31 07:03:38;;;;;;;0.40;0.40;;;;;;;10.39;70.52;102072.28;4994341;28;20014;-73
2023/01/31 07:06:05;;;;;;;0.30;0.30;;;;;;;10.45;70.74;102050.00;4992603;28;20057;-72
2023/01/31 07:08:31;;;;;;;0.28;0.28;;;;;;;10.07;72.18;102062.84;4993913;28;20043;-71
2023/01/31 07:10:57;;;;;;;0.30;0.30;;;;;;;10.70;70.19;102066.50;4992906;28;20127;-72
2023/01/31 07:13:22;;;;;;;0.43;0.43;;;;;;;10.39;70.42;102072.28;4991780;28;20042;-71
2023/01/31 07:15:48;;;;;;;0.40;0.40;;;;;;;10.76;68.62;102053.13;4994149;28;20482;-73
2023/01/31 07:18:13;;;;;;;0.30;0.30;;;;;;;10.30;71.07;102060.81;4993760;28;20042;-72
2023/01/31 07:20:40;;;;;;;0.30;0.30;;;;;;;10.74;68.78;102067.78;4974491;28;20050;-72
2023/01/31 07:23:05;;;;;;;0.30;0.30;;;;;;;10.50;70.46;102072.56;4974295;28;20054;-71
2023/01/31 07:25:32;;;;;;;0.32;0.32;;;;;;;10.69;69.88;102051.44;4987753;28;20116;-72
2023/01/31 07:27:58;;;;;;;0.30;0.30;;;;;;;10.79;68.64;102049.22;4992937;28;20046;-74
2023/01/31 07:30:24;;;;;;;0.43;0.43;;;;;;;10.88;68.61;102050.72;4993157;28;20038;-72
2023/01/31 07:32:49;;;;;;;0.22;0.22;;;;;;;10.95;68.70;102048.88;4993643;28;20041;-71
2023/01/31 07:35:15;;;;;;;0.52;0.52;;;;;;;10.63;70.15;102041.47;4993262;28;20049;-72
2023/01/31 07:37:42;;;;;;;0.40;0.40;;;;;;;10.02;71.16;102037.59;4991869;28;20030;-72
2023/01/31 07:40:08;;;;;;;0.32;0.32;;;;;;;11.19;67.89;102045.72;4993044;28;20034;-72
2023/01/31 07:42:34;;;;;;;0.30;0.30;;;;;;;10.09;71.89;102038.50;4993591;28;20136;-72
2023/01/31 07:44:59;;;;;;;0.30;0.30;;;;;;;10.69;69.58;102014.63;4992485;28;20128;-71
2023/01/31 07:47:25;;;;;;;0.47;0.47;;;;;;;10.31;72.34;102021.38;4992951;28;20064;-72
2023/01/31 07:49:50;;;;;;;0.30;0.30;;;;;;;10.76;71.04;102007.41;4992654;28;20026;-71
2023/01/31 07:52:15;;;;;;;0.35;0.35;;;;;;;10.72;69.91;102010.69;4992628;28;20490;-71
2023/01/31 07:54:41;;;;;;;0.50;0.50;;;;;;;10.59;71.19;102004.19;4992110;28;20486;-72
2023/01/31 07:57:06;;;;;;;0.40;0.40;;;;;;;11.03;69.71;101997.63;4991186;28;20044;-72
2023/01/31 07:59:32;;;;;;;0.35;0.35;;;;;;;10.81;70.91;101999.56;4990451;28;20034;-71
2023/01/31 08:04:41;;;;;;;0.45;0.45;;;;;;;10.55;71.56;101997.56;4989245;28;20242;-73
2023/01/31 08:07:09;;;;;;;0.30;0.30;;;;;;;10.09;73.27;102007.09;4991459;28;20132;-70
2023/01/31 08:09:34;;;;;;;0.47;0.47;;;;;;;10.46;72.31;101995.22;4992185;28;20034;-74
2023/01/31 08:11:59;;;;;;;0.35;0.35;;;;;;;10.30;73.13;101992.84;4990881;28;20057;-72
2023/01/31 08:14:27;;;;;;;0.50;0.30;;;;;;;10.46;72.35;101992.53;4991130;28;20038;-76
2023/01/31 08:16:55;;;;;;;0.30;0.30;;;;;;;10.63;71.30;101981.28;4991045;28;20049;-72
2023/01/31 08:19:21;;;;;;;0.30;0.30;;;;;;;10.56;71.78;101988.47;4988933;28;20065;-72
2023/01/31 08:21:47;;;;;;;0.28;0.28;;;;;;;10.57;71.31;102000.06;4991016;28;20030;-71
2023/01/31 08:24:13;;;;;;;0.47;0.47;;;;;;;10.98;70.26;101998.25;4991999;28;20070;-71
2023/01/31 08:26:38;;;;;;;0.40;0.40;;;;;;;10.24;73.53;101993.63;4993830;28;20045;-71
2023/01/31 08:29:03;;;;;;;0.30;0.30;;;;;;;10.77;72.15;101994.81;4995219;28;20621;-72
2023/01/31 08:31:29;;;;;;;0.47;0.47;;;;;;;10.88;70.83;101980.81;4994980;28;20042;-71
2023/01/31 08:33:56;;;;;;;0.30;0.30;;;;;;;10.84;71.45;102007.25;4995553;28;20026;-71
2023/01/31 08:36:30;;;;;;;0.43;0.43;;;;;;;10.89;71.51;102007.50;4995041;28;20039;-72
2023/01/31 08:38:56;;;;;;;0.40;0.40;;;;;;;10.75;70.82;102000.38;5010085;28;20522;-72
2023/01/31 08:41:23;;;;;;;0.30;0.30;;;;;;;10.87;71.44;101995.28;4994896;28;20502;-70
2023/01/31 08:43:50;;;;;;;0.20;0.20;;;;;;;10.72;71.18;101986.50;4994806;28;20469;-72
2023/01/31 08:46:16;;;;;;;0.32;0.32;;;;;;;10.87;70.70;101985.34;4994792;28;20061;-71
2023/01/31 08:48:42;;;;;;;0.35;0.35;;;;;;;11.33;69.41;101981.00;4995014;28;20121;-72
2023/01/31 08:51:10;;;;;;;0.30;0.30;;;;;;;10.95;71.02;101987.03;4994971;28;20030;-73
2023/01/31 08:53:42;;;;;;;0.38;0.38;;;;;;;10.99;69.90;101967.63;4991401;28;20042;-71
2023/01/31 08:56:08;;;;;;;0.47;0.47;;;;;;;11.46;68.96;101981.03;4994329;28;20054;-71
2023/01/31 08:58:35;;;;;;;0.30;0.30;;;;;;;11.51;67.81;101972.34;4993187;28;20061;-72
2023/01/31 09:01:16;;;;;;;0.40;0.40;;;;;;;11.54;68.34;101982.69;4995531;28;20046;-72
2023/01/31 09:03:42;;;;;;;0.22;0.22;;;;;;;11.91;66.92;101986.75;4994703;28;20133;-71
2023/01/31 09:06:13;;;;;;;0.30;0.30;;;;;;;11.81;67.72;101991.72;4994052;28;20084;-71
2023/01/31 09:08:38;;;;;;;0.30;0.30;;;;;;;10.93;70.11;101997.19;4993178;28;20104;-72
2023/01/31 09:11:04;;;;;;;0.30;0.30;;;;;;;11.07;70.95;101993.50;4994873;28;20133;-72
2023/01/31 09:13:32;;;;;;;0.40;0.40;;;;;;;11.40;68.89;102008.75;4995047;28;20045;-71
2023/01/31 09:16:09;;;;;;;0.40;0.40;;;;;;;10.95;71.58;101990.56;4995366;28;20065;-71
2023/01/31 09:18:37;;;;;;;0.30;0.30;;;;;;;11.47;68.99;102000.72;4994942;28;20071;-72
2023/01/31 09:21:08;;;;;;;0.45;0.45;;;;;;;11.29;69.88;101990.50;4994625;28;20519;-72
2023/01/31 09:23:34;;;;;;;0.40;0.40;;;;;;;11.01;70.33;101976.31;4994799;28;20096;-72
2023/01/31 09:25:59;;;;;;;0.25;0.25;;;;;;;11.37;69.03;101966.09;4993524;28;20526;-72
2023/01/31 09:28:26;;;;;;;0.40;0.40;;;;;;;11.92;67.58;101962.28;4992939;28;20061;-72
2023/01/31 09:30:52;;;;;;;0.40;0.40;;;;;;;11.89;66.93;101967.28;4993138;28;20033;-72
2023/01/31 09:33:18;;;;;;;0.20;0.20;;;;;;;11.75;67.98;101966.44;4993863;28;20043;-72
2023/01/31 09:35:55;;;;;;;0.30;0.30;;;;;;;12.33;66.11;101960.22;4993890;28;20046;-72
2023/01/31 09:38:22;;;;;;;0.38;0.38;;;;;;;11.69;68.30;101944.88;4994202;28;20049;-72
2023/01/31 09:40:48;;;;;;;0.30;0.30;;;;;;;11.59;68.61;101950.63;4993785;28;20503;-71
2023/01/31 09:43:15;;;;;;;0.30;0.30;;;;;;;11.73;68.24;101954.19;4993992;28;20041;-73
2023/01/31 09:45:43;;;;;;;0.30;0.30;;;;;;;11.84;67.33;101942.81;4994298;28;20167;-71
2023/01/31 09:48:17;;;;;;;0.35;0.35;;;;;;;11.50;69.36;101941.91;4993343;28;20034;-72
2023/01/31 09:50:48;;;;;;;0.38;0.38;;;;;;;11.88;68.54;101939.50;4989111;28;20041;-71
2023/01/31 09:53:20;;;;;;;0.30;0.30;;;;;;;11.42;69.07;101936.72;4993688;28;20034;-71
2023/01/31 09:56:13;;;;;;;0.40;0.40;;;;;;;11.71;69.58;101935.56;4993937;28;20041;-72
2023/01/31 09:58:42;;;;;;;0.30;0.30;;;;;;;11.61;69.30;101929.72;4993270;28;20030;-71
2023/01/31 10:01:18;;;;;;;0.40;0.40;;;;;;;11.60;69.33;101929.91;4993840;28;20046;-71
2023/01/31 10:03:55;;;;;;;0.30;0.30;;;;;;;12.26;67.50;101950.47;4979486;28;20026;-73
2023/01/31 10:06:23;;;;;;;0.20;0.20;;;;;;;12.42;66.93;101925.78;4992845;28;20038;-73
2023/01/31 10:09:11;;;;;;;0.30;0.30;;;;;;;12.89;65.39;101916.50;4993387;28;20046;-72
2023/01/31 10:11:43;;;;;;;0.28;0.28;;;;;;;12.86;65.00;101920.44;4977631;28;20069;-72
2023/01/31 10:14:35;;;;;;;0.30;0.30;;;;;;;12.35;67.30;101912.31;4993352;28;20039;-71
2023/01/31 10:17:06;;;;;;;0.30;0.30;;;;;;;12.47;66.14;101922.44;4993623;28;20045;-72
2023/01/31 10:19:50;;;;;;;0.40;0.40;;;;;;;12.65;65.44;101917.19;4985651;28;20061;-73
2023/01/31 10:22:27;;;;;;;0.22;0.22;;;;;;;12.19;66.60;101941.56;4993082;28;20038;-71
2023/01/31 10:24:58;;;;;;;0.30;0.30;;;;;;;12.39;66.73;101920.78;4993290;28;20471;-72
2023/01/31 10:27:41;;;;;;;0.17;0.17;;;;;;;11.99;67.94;101900.34;4993333;28;20045;-72
2023/01/31 10:30:15;;;;;;;0.40;0.40;;;;;;;11.77;68.79;101902.44;4992481;28;20034;-73
2023/01/31 10:32:47;;;;;;;0.20;0.20;;;;;;;11.98;67.58;101912.16;4991805;28;20062;-72
2023/01/31 10:35:24;;;;;;;0.40;0.40;;;;;;;11.93;68.76;101920.84;4992864;28;20326;-71
2023/01/31 10:37:57;;;;;;;0.30;0.30;;;;;;;12.18;67.34;101904.88;4993153;28;20501;-72
2023/01/31 10:40:36;;;;;;;0.20;0.20;;;;;;;11.59;69.93;101928.25;4992785;28;20467;-70
2023/01/31 10:43:17;;;;;;;0.50;0.50;;;;;;;11.46;70.53;101905.66;4993850;28;20044;-72
2023/01/31 10:45:43;;;;;;;0.30;0.30;;;;;;;12.30;68.21;101909.41;4992253;28;20035;-70
2023/01/31 10:48:11;;;;;;;0.30;0.30;;;;;;;11.89;70.39;101916.09;4974235;28;20458;-72
2023/01/31 10:50:53;;;;;;;0.38;0.38;;;;;;;11.93;71.10;101909.25;4992988;28;20045;-72
2023/01/31 10:53:42;;;;;;;0.30;0.30;;;;;;;11.51;71.59;101913.13;4993403;28;20050;-72
2023/01/31 10:56:32;;;;;;;0.30;0.30;;;;;;;11.77;71.19;101915.06;4970976;28;20034;-71
2023/01/31 10:59:04;;;;;;;0.40;0.40;;;;;;;11.59;71.68;101920.19;4950280;29;20039;-71
2023/01/31 11:01:30;;;;;;;0.47;0.47;;;;;;;12.04;69.57;101927.47;4950461;29;20462;-71
2023/01/31 11:03:56;;;;;;;0.50;0.50;;;;;;;12.22;69.16;101938.47;4951038;29;20068;-71
2023/01/31 11:06:23;;;;;;;0.32;0.32;;;;;;;11.98;70.03;101931.84;4934426;29;20065;-72
2023/01/31 11:08:53;;;;;;;0.40;0.40;;;;;;;11.89;71.74;101924.97;4950611;28;20050;-71
2023/01/31 11:11:20;;;;;;;0.30;0.30;;;;;;;11.71;72.49;101919.41;4950528;29;20520;-73
2023/01/31 11:14:04;;;;;;;0.45;0.45;;;;;;;11.29;76.02;101925.94;4950263;28;20043;-70
2023/01/31 11:16:36;;;;;;;0.50;0.50;;;;;;;11.24;78.34;101923.00;4950066;29;20400;-71
2023/01/31 11:19:11;;;;;;;0.30;0.30;;;;;;;11.10;77.80;101912.41;4950622;29;20396;-71
2023/01/31 11:21:38;;;;;;;0.40;0.40;;;;;;;11.67;75.63;101907.38;4948127;29;20046;-73
2023/01/31 11:24:06;;;;;;;0.30;0.30;;;;;;;11.32;75.78;101911.25;4950180;28;20392;-71
2023/01/31 11:26:37;;;;;;;0.40;0.40;;;;;;;11.56;75.14;101902.56;4947509;28;20463;-70
2023/01/31 11:29:09;;;;;;;0.35;0.35;;;;;;;11.54;76.71;101899.25;4949981;28;20031;-71
2023/01/31 11:31:40;;;;;;;0.30;0.30;;;;;;;11.41;76.09;101891.16;4947658;29;20035;-73
2023/01/31 11:34:17;;;;;;;;;;;;;;;11.52;75.79;101900.50;4918521;29;20071;-69
2023/01/31 11:36:44;;;;;;;0.40;0.40;;;;;;;11.19;77.00;101897.75;4980065;28;19913;-69
2023/01/31 11:39:38;;;;;;;0.20;0.20;;;;;;;11.71;75.13;101887.09;4991433;28;20064;-71
2023/01/31 11:42:16;;;;;;;0.40;0.40;;;;;;;11.50;76.79;101893.47;4990610;28;20054;-72
2023/01/31 11:45:02;;;;;;;0.50;0.50;;;;;;;11.50;77.92;101887.22;4972991;28;20391;-71
2023/01/31 11:47:46;;;;;;;0.30;0.30;;;;;;;12.01;74.61;101876.72;4973024;28;20049;-73